createdAt,value
2022-11-30T00:01:20.378Z,3.90
2022-11-30T00:03:47.888Z,3.80
2022-11-30T00:06:16.230Z,3.80
2022-11-30T00:08:43.527Z,3.80
2022-11-30T00:11:15.310Z,3.70
2022-11-30T00:13:42.608Z,3.60
2022-11-30T00:16:10.161Z,3.60
2022-11-30T00:18:37.491Z,3.60
2022-11-30T00:21:06.432Z,3.60
2022-11-30T00:23:40.879Z,3.60
2022-11-30T00:26:09.736Z,3.60
2022-11-30T00:28:37.636Z,3.60
2022-11-30T00:31:06.665Z,3.70
2022-11-30T00:33:34.768Z,3.60
2022-11-30T00:36:03.356Z,3.60
2022-11-30T00:38:31.917Z,3.60
2022-11-30T00:40:59.929Z,3.60
2022-11-30T00:43:27.509Z,3.60
2022-11-30T00:45:55.202Z,3.50
2022-11-30T00:48:22.623Z,3.50
2022-11-30T00:50:50.127Z,3.50
2022-11-30T00:53:17.980Z,3.50
2022-11-30T00:55:45.379Z,3.50
2022-11-30T00:58:12.773Z,3.50
2022-11-30T01:00:41.784Z,3.60
2022-11-30T01:03:09.163Z,3.50
2022-11-30T01:05:36.585Z,3.50
2022-11-30T01:08:05.560Z,3.50
2022-11-30T01:10:34.058Z,3.50
2022-11-30T01:13:01.817Z,3.60
2022-11-30T01:15:29.445Z,3.50
2022-11-30T01:17:58.679Z,3.50
2022-11-30T01:20:26.007Z,3.50
2022-11-30T01:22:54.592Z,3.50
2022-11-30T01:25:22.657Z,3.50
2022-11-30T01:27:50.546Z,3.60
2022-11-30T01:30:18.137Z,3.60
2022-11-30T01:32:45.435Z,3.60
2022-11-30T01:35:12.763Z,3.70
2022-11-30T01:37:40.051Z,3.60
2022-11-30T01:40:07.903Z,3.60
2022-11-30T01:42:37.852Z,3.60
2022-11-30T01:45:05.885Z,3.70
2022-11-30T01:47:37.545Z,3.60
2022-11-30T01:50:16.696Z,3.60
2022-11-30T01:52:45.545Z,3.60
2022-11-30T01:55:37.882Z,3.50
2022-11-30T01:58:14.190Z,3.50
2022-11-30T02:00:44.214Z,3.60
2022-11-30T02:03:15.049Z,3.60
2022-11-30T02:05:42.425Z,3.60
2022-11-30T02:08:10.870Z,3.60
2022-11-30T02:10:39.998Z,3.70
2022-11-30T02:13:11.340Z,3.60
2022-11-30T02:15:58.965Z,3.70
2022-11-30T02:18:46.860Z,3.70
2022-11-30T02:21:36.949Z,3.70
2022-11-30T02:24:33.390Z,3.60
2022-11-30T02:27:15.197Z,3.60
2022-11-30T02:30:02.051Z,3.60
2022-11-30T02:32:31.665Z,3.60
2022-11-30T02:34:59.296Z,3.60
2022-11-30T02:37:26.628Z,3.60
2022-11-30T02:39:53.959Z,3.70
2022-11-30T02:42:21.259Z,3.70
2022-11-30T02:44:50.008Z,3.70
2022-11-30T02:47:17.431Z,3.70
2022-11-30T02:49:49.943Z,3.70
2022-11-30T02:52:17.392Z,3.80
2022-11-30T02:54:44.907Z,3.70
2022-11-30T02:57:12.604Z,3.80
2022-11-30T02:59:39.888Z,3.70
2022-11-30T03:02:07.499Z,3.80
2022-11-30T03:04:34.819Z,3.70
2022-11-30T03:07:02.140Z,3.70
2022-11-30T03:09:29.430Z,3.70
2022-11-30T03:11:56.761Z,3.70
2022-11-30T03:14:24.063Z,3.60
2022-11-30T03:16:51.421Z,3.60
2022-11-30T03:19:18.716Z,3.60
2022-11-30T03:21:45.980Z,3.60
2022-11-30T03:24:13.362Z,3.50
2022-11-30T03:26:40.700Z,3.50
2022-11-30T03:29:07.965Z,3.50
2022-11-30T03:31:35.322Z,3.60
2022-11-30T03:34:02.812Z,3.50
2022-11-30T03:36:30.081Z,3.50
2022-11-30T03:38:57.438Z,3.50
2022-11-30T03:41:24.765Z,3.40
2022-11-30T03:43:52.050Z,3.40
2022-11-30T03:46:19.637Z,3.40
2022-11-30T03:48:46.996Z,3.30
2022-11-30T03:51:14.570Z,3.30
2022-11-30T03:53:41.950Z,3.30
2022-11-30T03:56:09.905Z,3.20
2022-11-30T03:58:37.427Z,3.10
2022-11-30T04:01:16.109Z,3.20
2022-11-30T04:03:43.567Z,3.20
2022-11-30T04:06:11.646Z,3.20
2022-11-30T04:08:39.136Z,3.20
2022-11-30T04:11:06.569Z,3.30
2022-11-30T04:13:34.348Z,3.30
2022-11-30T04:16:01.813Z,3.20
2022-11-30T04:18:31.597Z,3.10
2022-11-30T04:20:59.295Z,3.10
2022-11-30T04:23:29.324Z,3.20
2022-11-30T04:25:57.132Z,3.20
2022-11-30T04:28:24.457Z,3.30
2022-11-30T04:30:53.236Z,3.20
2022-11-30T04:33:20.626Z,3.20
2022-11-30T04:35:49.503Z,3.20
2022-11-30T04:38:16.856Z,3.30
2022-11-30T04:40:44.226Z,3.30
2022-11-30T04:43:11.850Z,3.30
2022-11-30T04:45:39.509Z,3.40
2022-11-30T04:48:07.177Z,3.40
2022-11-30T04:50:34.783Z,3.50
2022-11-30T04:53:02.132Z,3.50
2022-11-30T04:55:29.515Z,3.50
2022-11-30T04:57:56.839Z,3.50
2022-11-30T05:00:24.317Z,3.50
2022-11-30T05:02:53.188Z,3.50
2022-11-30T05:05:20.780Z,3.40
2022-11-30T05:07:54.556Z,3.40
2022-11-30T05:10:21.950Z,3.30
2022-11-30T05:12:50.224Z,3.40
2022-11-30T05:15:17.749Z,3.40
2022-11-30T05:17:45.055Z,3.50
2022-11-30T05:20:12.452Z,3.50
2022-11-30T05:22:39.784Z,3.50
2022-11-30T05:25:07.506Z,3.60
2022-11-30T05:27:35.363Z,3.60
2022-11-30T05:30:03.178Z,3.60
2022-11-30T05:32:30.459Z,3.60
2022-11-30T05:34:58.378Z,3.50
2022-11-30T05:37:26.026Z,3.40
2022-11-30T05:39:53.300Z,3.50
2022-11-30T05:42:20.839Z,3.40
2022-11-30T05:44:48.436Z,3.40
2022-11-30T05:47:16.199Z,3.40
2022-11-30T05:49:43.575Z,3.30
2022-11-30T05:52:10.905Z,3.30
2022-11-30T05:54:38.218Z,3.30
2022-11-30T05:57:05.499Z,3.20
2022-11-30T05:59:32.886Z,3.30
2022-11-30T06:02:00.311Z,3.40
2022-11-30T06:04:27.947Z,3.40
2022-11-30T06:06:57.847Z,3.50
2022-11-30T06:09:25.268Z,3.50
2022-11-30T06:11:52.543Z,3.50
2022-11-30T06:14:19.859Z,3.50
2022-11-30T06:16:47.213Z,3.50
2022-11-30T06:19:14.546Z,3.50
2022-11-30T06:21:41.947Z,3.50
2022-11-30T06:24:10.128Z,3.50
2022-11-30T06:26:37.497Z,3.50
2022-11-30T06:29:04.775Z,3.60
2022-11-30T06:31:32.213Z,3.60
2022-11-30T06:33:59.651Z,3.70
2022-11-30T06:36:31.288Z,3.70
2022-11-30T06:39:02.872Z,3.60
2022-11-30T06:41:30.174Z,3.70
2022-11-30T06:43:57.463Z,3.60
2022-11-30T06:46:25.067Z,3.50
2022-11-30T06:48:52.344Z,3.40
2022-11-30T06:51:19.717Z,3.40
2022-11-30T06:53:47.178Z,3.50
2022-11-30T06:56:14.547Z,3.40
2022-11-30T06:58:41.964Z,3.50
2022-11-30T07:01:12.865Z,3.60
2022-11-30T07:03:41.680Z,3.70
2022-11-30T07:06:10.300Z,3.60
2022-11-30T07:08:37.781Z,3.70
2022-11-30T07:11:05.475Z,3.60
2022-11-30T07:13:32.860Z,3.60
2022-11-30T07:16:02.797Z,3.70
2022-11-30T07:18:32.124Z,3.70
2022-11-30T07:21:01.041Z,3.80
2022-11-30T07:23:52.262Z,3.70
2022-11-30T07:26:22.079Z,3.70
2022-11-30T07:28:54.305Z,3.80
2022-11-30T07:31:32.217Z,3.80
2022-11-30T07:34:02.622Z,3.90
2022-11-30T07:36:31.580Z,3.90
2022-11-30T07:38:58.929Z,4.00
2022-11-30T07:41:26.542Z,4.00
2022-11-30T07:43:53.936Z,4.00
2022-11-30T07:46:21.273Z,4.00
2022-11-30T07:48:48.573Z,4.00
2022-11-30T07:51:17.935Z,4.10
2022-11-30T07:53:45.272Z,4.00
2022-11-30T07:56:14.157Z,3.90
2022-11-30T07:58:41.767Z,3.90
2022-11-30T08:01:14.069Z,3.80
2022-11-30T08:03:41.629Z,3.80
2022-11-30T08:06:11.506Z,3.80
2022-11-30T08:08:40.588Z,3.80
2022-11-30T08:11:08.630Z,4.00
2022-11-30T08:13:35.924Z,4.00
2022-11-30T08:16:04.082Z,4.10
2022-11-30T08:18:31.409Z,4.10
2022-11-30T08:20:59.903Z,4.10
2022-11-30T08:23:31.334Z,4.20
2022-11-30T08:26:12.202Z,4.30
2022-11-30T08:28:40.174Z,4.30
2022-11-30T08:31:09.750Z,4.30
2022-11-30T08:33:37.259Z,4.40
2022-11-30T08:36:12.287Z,4.50
2022-11-30T08:38:40.066Z,4.50
2022-11-30T08:41:07.791Z,4.40
2022-11-30T08:43:35.121Z,4.30
2022-11-30T08:46:11.366Z,4.30
2022-11-30T08:48:50.190Z,4.40
2022-11-30T08:51:18.146Z,4.40
2022-11-30T08:53:45.717Z,4.40
2022-11-30T08:56:18.272Z,4.30
2022-11-30T08:58:45.832Z,4.40
2022-11-30T09:01:17.015Z,4.40
2022-11-30T09:03:44.908Z,4.50
2022-11-30T09:06:13.787Z,4.50
2022-11-30T09:08:42.060Z,4.50
2022-11-30T09:11:20.071Z,4.50
2022-11-30T09:13:47.524Z,4.50
2022-11-30T09:16:15.705Z,4.50
2022-11-30T09:18:43.070Z,4.50
2022-11-30T09:21:12.026Z,4.60
2022-11-30T09:23:39.449Z,4.50
2022-11-30T09:26:09.475Z,4.60
2022-11-30T09:28:36.829Z,4.60
2022-11-30T09:31:09.651Z,4.60
2022-11-30T09:33:37.138Z,4.60
2022-11-30T09:36:06.501Z,4.60
2022-11-30T09:38:33.903Z,4.60
2022-11-30T09:41:04.364Z,4.40
2022-11-30T09:43:51.718Z,4.30
2022-11-30T09:46:19.114Z,4.40
2022-11-30T09:49:06.118Z,4.40
2022-11-30T09:51:39.883Z,4.50
2022-11-30T09:54:10.429Z,4.40
2022-11-30T09:56:40.751Z,4.50
2022-11-30T09:59:26.442Z,4.60
2022-11-30T10:01:57.085Z,4.50
2022-11-30T10:04:30.744Z,4.40
2022-11-30T10:07:11.888Z,4.40
2022-11-30T10:10:15.901Z,4.40
2022-11-30T10:12:41.764Z,4.40
2022-11-30T10:15:20.940Z,4.30
2022-11-30T10:18:13.931Z,4.30
2022-11-30T10:21:23.002Z,4.30
2022-11-30T10:24:17.990Z,4.50
2022-11-30T10:26:53.434Z,4.60
2022-11-30T10:29:42.017Z,4.70
2022-11-30T10:32:17.693Z,4.80
2022-11-30T10:34:46.230Z,4.70
2022-11-30T10:37:34.295Z,4.80
2022-11-30T10:40:06.150Z,4.80
2022-11-30T10:43:06.535Z,4.80
2022-11-30T10:45:33.828Z,4.80
2022-11-30T10:48:09.029Z,4.90
2022-11-30T10:50:36.357Z,4.80
2022-11-30T10:53:03.708Z,4.80
2022-11-30T10:55:35.379Z,4.80
2022-11-30T10:58:05.301Z,4.90
2022-11-30T11:00:32.609Z,4.90
2022-11-30T11:02:59.928Z,5.00
2022-11-30T11:05:29.393Z,4.90
2022-11-30T11:08:19.587Z,5.00
2022-11-30T11:10:49.739Z,5.00
2022-11-30T11:13:39.122Z,4.90
2022-11-30T11:16:12.062Z,4.90
2022-11-30T11:18:57.096Z,4.90
2022-11-30T11:21:24.564Z,4.80
2022-11-30T11:23:55.472Z,4.60
2022-11-30T11:26:28.497Z,4.70
2022-11-30T11:28:56.877Z,4.60
2022-11-30T11:31:42.732Z,4.50
2022-11-30T11:34:31.984Z,4.70
2022-11-30T11:37:33.672Z,4.80
2022-11-30T11:40:10.362Z,4.80
2022-11-30T11:42:42.184Z,4.80
2022-11-30T11:45:16.818Z,5.00
2022-11-30T11:47:45.004Z,4.90
2022-11-30T11:50:12.277Z,4.90
2022-11-30T11:52:39.652Z,4.90
2022-11-30T11:55:12.713Z,4.90
2022-11-30T11:57:52.385Z,4.90
2022-11-30T12:00:21.518Z,5.00
2022-11-30T12:02:57.702Z,5.00
2022-11-30T12:05:44.370Z,5.00
2022-11-30T12:08:23.810Z,5.10
2022-11-30T12:11:00.845Z,5.10
2022-11-30T12:13:41.436Z,5.00
2022-11-30T12:16:26.197Z,4.90
2022-11-30T12:19:00.523Z,4.90
2022-11-30T12:21:58.880Z,4.90
2022-11-30T12:24:44.855Z,4.90
2022-11-30T12:27:12.054Z,4.80
2022-11-30T12:30:01.162Z,4.80
2022-11-30T12:33:10.306Z,4.80
2022-11-30T12:36:03.177Z,4.80
2022-11-30T12:38:36.823Z,4.60
2022-11-30T12:41:04.112Z,4.70
2022-11-30T12:44:01.476Z,4.70
2022-11-30T12:46:32.646Z,4.60
2022-11-30T12:49:34.607Z,4.60
2022-11-30T12:52:16.854Z,4.70
2022-11-30T12:54:53.926Z,4.70
2022-11-30T12:57:30.724Z,4.80
2022-11-30T13:00:13.053Z,4.80
2022-11-30T13:03:27.674Z,4.80
2022-11-30T13:05:57.993Z,4.90
2022-11-30T13:08:25.667Z,5.00
2022-11-30T13:10:58.979Z,5.10
2022-11-30T13:13:29.717Z,5.10
2022-11-30T13:15:57.140Z,5.10
2022-11-30T13:18:24.537Z,5.00
2022-11-30T13:21:07.279Z,5.00
2022-11-30T13:23:36.113Z,5.10
2022-11-30T13:26:15.637Z,5.10
2022-11-30T13:28:48.524Z,5.10
2022-11-30T13:31:29.393Z,5.10
2022-11-30T13:33:57.439Z,5.10
2022-11-30T13:36:32.315Z,5.10
2022-11-30T13:39:15.123Z,5.10
2022-11-30T13:41:45.210Z,4.90
2022-11-30T13:44:35.266Z,4.90
2022-11-30T13:47:04.390Z,5.00
2022-11-30T13:49:33.519Z,5.10
2022-11-30T13:52:22.259Z,4.90
2022-11-30T13:54:57.287Z,4.80
2022-11-30T13:57:24.612Z,4.80
2022-11-30T13:59:57.175Z,4.90
2022-11-30T14:05:32.880Z,4.80
2022-11-30T14:08:00.284Z,4.80
2022-11-30T14:10:39.120Z,4.90
2022-11-30T14:13:09.798Z,4.90
2022-11-30T14:15:41.602Z,4.90
2022-11-30T14:18:18.648Z,4.90
2022-11-30T14:20:52.047Z,4.90
2022-11-30T14:23:41.799Z,4.80
2022-11-30T14:26:11.518Z,4.80
2022-11-30T14:28:47.438Z,4.80
2022-11-30T14:31:21.239Z,4.70
2022-11-30T14:33:53.393Z,4.70
2022-11-30T14:36:21.783Z,4.70
2022-11-30T14:38:49.084Z,4.70
2022-11-30T14:41:20.917Z,4.70
2022-11-30T14:44:17.690Z,4.80
2022-11-30T14:46:45.084Z,4.60
2022-11-30T14:49:20.256Z,4.60
2022-11-30T14:52:08.803Z,4.60
2022-11-30T14:54:53.869Z,4.60
2022-11-30T14:57:21.179Z,4.60
2022-11-30T14:59:53.165Z,4.50
2022-11-30T15:02:29.437Z,4.50
2022-11-30T15:04:57.453Z,4.40
2022-11-30T15:07:25.040Z,4.30
2022-11-30T15:10:19.908Z,4.30
2022-11-30T15:12:47.223Z,4.20
2022-11-30T15:15:26.383Z,4.20
2022-11-30T15:18:20.642Z,4.10
2022-11-30T15:21:15.429Z,4.10
2022-11-30T15:23:46.729Z,4.10
2022-11-30T15:26:21.292Z,4.10
2022-11-30T15:28:59.359Z,4.00
2022-11-30T15:31:34.606Z,4.00
2022-11-30T15:34:02.085Z,4.00
2022-11-30T15:36:38.017Z,4.00
2022-11-30T15:39:08.358Z,4.00
2022-11-30T15:41:35.750Z,4.00
2022-11-30T15:44:03.156Z,4.00
2022-11-30T15:46:38.623Z,4.00
2022-11-30T15:49:38.004Z,4.00
2022-11-30T15:52:09.134Z,3.90
2022-11-30T15:54:49.399Z,3.90
2022-11-30T15:57:17.001Z,4.00
2022-11-30T15:59:44.531Z,3.90
2022-11-30T16:02:31.259Z,3.90
2022-11-30T16:04:58.579Z,3.90
2022-11-30T16:07:28.692Z,3.80
2022-11-30T16:10:06.410Z,3.80
2022-11-30T16:12:33.745Z,3.80
2022-11-30T16:15:01.023Z,3.70
2022-11-30T16:17:29.967Z,3.70
2022-11-30T16:19:57.310Z,3.60
2022-11-30T16:22:24.663Z,3.70
2022-11-30T16:24:51.979Z,3.70
2022-11-30T16:27:19.808Z,3.60
2022-11-30T16:29:52.093Z,3.70
2022-11-30T16:32:19.889Z,3.70
2022-11-30T16:34:47.512Z,3.70
2022-11-30T16:37:14.875Z,3.70
2022-11-30T16:39:42.225Z,3.60
2022-11-30T16:42:12.692Z,3.60
2022-11-30T16:44:40.004Z,3.60
2022-11-30T16:47:07.316Z,3.60
2022-11-30T16:49:34.653Z,3.60
2022-11-30T16:52:01.940Z,3.70
2022-11-30T16:54:29.255Z,3.60
2022-11-30T16:56:56.839Z,3.50
2022-11-30T16:59:24.172Z,3.50
2022-11-30T17:01:52.964Z,3.40
2022-11-30T17:04:22.876Z,3.40
2022-11-30T17:06:52.146Z,3.40
2022-11-30T17:09:21.173Z,3.40
2022-11-30T17:11:52.122Z,3.50
2022-11-30T17:14:19.699Z,3.40
2022-11-30T17:16:47.073Z,3.40
2022-11-30T17:19:14.388Z,3.40
2022-11-30T17:21:42.950Z,3.40
2022-11-30T17:24:10.255Z,3.40
2022-11-30T17:26:37.543Z,3.40
2022-11-30T17:29:04.874Z,3.40
2022-11-30T17:31:32.487Z,3.40
2022-11-30T17:33:59.842Z,3.40
2022-11-30T17:36:29.184Z,3.30
2022-11-30T17:38:56.740Z,3.30
2022-11-30T17:41:24.073Z,3.30
2022-11-30T17:43:52.140Z,3.30
2022-11-30T17:46:19.534Z,3.30
2022-11-30T17:48:46.871Z,3.30
2022-11-30T17:51:14.284Z,3.30
2022-11-30T17:53:42.137Z,3.30
2022-11-30T17:56:18.535Z,3.40
2022-11-30T17:58:46.503Z,3.30
2022-11-30T18:01:17.716Z,3.20
2022-11-30T18:03:45.408Z,3.30
2022-11-30T18:06:13.130Z,3.30
2022-11-30T18:08:40.521Z,3.30
2022-11-30T18:11:20.842Z,3.30
2022-11-30T18:13:49.931Z,3.30
2022-11-30T18:16:24.992Z,3.20
2022-11-30T18:18:52.767Z,3.20
2022-11-30T18:21:21.352Z,3.20
2022-11-30T18:23:48.939Z,3.30
2022-11-30T18:26:18.059Z,3.40
2022-11-30T18:28:45.569Z,3.30
2022-11-30T18:31:13.298Z,3.40
2022-11-30T18:33:40.947Z,3.30
2022-11-30T18:36:08.420Z,3.30
2022-11-30T18:38:38.552Z,3.40
2022-11-30T18:41:06.428Z,3.40
2022-11-30T18:43:34.405Z,3.30
2022-11-30T18:46:09.472Z,3.30
2022-11-30T18:48:37.039Z,3.40
2022-11-30T18:51:14.346Z,3.40
2022-11-30T18:53:41.761Z,3.40
2022-11-30T18:56:16.863Z,3.40
2022-11-30T18:58:44.359Z,3.30
2022-11-30T19:01:16.620Z,3.30
2022-11-30T19:03:44.037Z,3.30
2022-11-30T19:06:11.393Z,3.30
2022-11-30T19:08:39.507Z,3.30
2022-11-30T19:11:08.100Z,3.30
2022-11-30T19:13:35.657Z,3.30
2022-11-30T19:16:04.247Z,3.30
2022-11-30T19:18:31.682Z,3.20
2022-11-30T19:20:58.990Z,3.20
2022-11-30T19:23:26.348Z,3.30
2022-11-30T19:25:55.086Z,3.30
2022-11-30T19:28:22.396Z,3.30
2022-11-30T19:30:49.701Z,3.30
2022-11-30T19:33:16.961Z,3.40
2022-11-30T19:35:44.238Z,3.30
2022-11-30T19:38:11.558Z,3.40
2022-11-30T19:40:38.994Z,3.40
2022-11-30T19:43:06.291Z,3.40
2022-11-30T19:45:34.480Z,3.40
2022-11-30T19:48:01.812Z,3.40
2022-11-30T19:50:29.157Z,3.30
2022-11-30T19:52:57.126Z,3.40
2022-11-30T19:55:24.434Z,3.40
2022-11-30T19:57:51.755Z,3.40
2022-11-30T20:00:19.452Z,3.50
2022-11-30T20:02:49.452Z,3.50
2022-11-30T20:05:17.524Z,3.40
2022-11-30T20:07:44.985Z,3.40
2022-11-30T20:10:15.270Z,3.30
2022-11-30T20:12:42.612Z,3.20
2022-11-30T20:15:10.347Z,3.30
2022-11-30T20:17:37.672Z,3.30
2022-11-30T20:20:05.625Z,3.30
2022-11-30T20:22:33.709Z,3.30
2022-11-30T20:25:01.019Z,3.40
2022-11-30T20:27:28.355Z,3.40
2022-11-30T20:29:56.292Z,3.50
2022-11-30T20:32:24.125Z,3.40
2022-11-30T20:34:51.652Z,3.40
2022-11-30T20:37:19.099Z,3.40
2022-11-30T20:39:46.559Z,3.40
2022-11-30T20:42:13.951Z,3.50
2022-11-30T20:44:41.239Z,3.50
2022-11-30T20:47:08.611Z,3.50
2022-11-30T20:49:35.888Z,3.60
2022-11-30T20:52:03.740Z,3.60
2022-11-30T20:54:31.578Z,3.60
2022-11-30T20:56:59.208Z,3.60
2022-11-30T20:59:26.825Z,3.60
2022-11-30T21:01:55.094Z,3.60
2022-11-30T21:04:23.696Z,3.50
2022-11-30T21:06:51.066Z,3.40
2022-11-30T21:09:19.094Z,3.40
2022-11-30T21:11:47.215Z,3.50
2022-11-30T21:14:14.677Z,3.40
2022-11-30T21:16:42.072Z,3.50
2022-11-30T21:19:10.684Z,3.40
2022-11-30T21:21:38.075Z,3.30
2022-11-30T21:24:07.521Z,3.30
2022-11-30T21:26:39.646Z,3.30
2022-11-30T21:29:16.643Z,3.30
2022-11-30T21:31:44.718Z,3.30
2022-11-30T21:34:12.183Z,3.30
2022-11-30T21:36:39.483Z,3.30
2022-11-30T21:39:07.590Z,3.30
2022-11-30T21:41:36.352Z,3.30
2022-11-30T21:44:04.278Z,3.30
2022-11-30T21:46:31.858Z,3.30
2022-11-30T21:48:59.367Z,3.30
2022-11-30T21:51:27.733Z,3.30
2022-11-30T21:53:57.300Z,3.30
2022-11-30T21:56:27.357Z,3.30
2022-11-30T21:58:54.840Z,3.40
2022-11-30T22:01:27.618Z,3.40
2022-11-30T22:03:55.916Z,3.40
2022-11-30T22:06:23.731Z,3.40
2022-11-30T22:08:51.032Z,3.40
2022-11-30T22:11:19.770Z,3.40
2022-11-30T22:13:53.579Z,3.40
2022-11-30T22:16:22.120Z,3.30
2022-11-30T22:18:52.117Z,3.30
2022-11-30T22:21:21.288Z,3.30
2022-11-30T22:23:53.381Z,3.30
2022-11-30T22:26:25.169Z,3.30
2022-11-30T22:28:57.278Z,3.30
2022-11-30T22:31:33.448Z,3.40
2022-11-30T22:34:00.843Z,3.40
2022-11-30T22:36:29.592Z,3.40
2022-11-30T22:39:01.522Z,3.30
2022-11-30T22:41:28.948Z,3.30
2022-11-30T22:43:56.433Z,3.30
2022-11-30T22:46:25.367Z,3.30
2022-11-30T22:48:52.859Z,3.30
2022-11-30T22:51:21.666Z,3.20
2022-11-30T22:53:49.266Z,3.20
2022-11-30T22:56:21.217Z,3.30
2022-11-30T22:58:49.470Z,3.30
2022-11-30T23:01:19.105Z,3.30
2022-11-30T23:03:47.285Z,3.30
2022-11-30T23:06:15.553Z,3.20
2022-11-30T23:08:43.142Z,3.10
2022-11-30T23:11:12.269Z,3.20
2022-11-30T23:13:39.829Z,3.20
2022-11-30T23:16:07.761Z,3.20
2022-11-30T23:18:40.054Z,3.20
2022-11-30T23:21:18.433Z,3.30
2022-11-30T23:23:46.061Z,3.30
2022-11-30T23:26:15.052Z,3.20
2022-11-30T23:28:42.990Z,3.10
2022-11-30T23:31:34.253Z,3.00
2022-11-30T23:33:59.595Z,3.00
2022-11-30T23:36:26.857Z,3.00
2022-11-30T23:38:56.842Z,2.90
2022-11-30T23:41:24.121Z,2.90
2022-11-30T23:43:51.582Z,2.90
2022-11-30T23:46:18.926Z,3.00
2022-11-30T23:48:46.344Z,3.00
2022-11-30T23:51:13.602Z,3.10
2022-11-30T23:53:40.929Z,3.10
2022-11-30T23:56:11.169Z,3.10
2022-11-30T23:58:39.615Z,3.20
